Time;durP1;ratioP1;P1;durP2;ratioP2;P2;SDS_P1;SDS_P2;PMS_P1;PMS_P2;Temp;Humidity;BMP_temperature;BMP_pressure;BME280_temperature;BME280_humidity;BME280_pressure;Samples;Min_cycle;Max_cycle;Signal;HPM_P1;HPM_P2
2023/06/06 00:01:36;;;;;;;7.07;5.72;;;14.60;99.90;;;;;;5044598;28;20059;-43
2023/06/06 00:04:01;;;;;;;8.13;6.10;;;14.60;99.90;;;;;;5045676;28;20531;-42
2023/06/06 00:06:33;;;;;;;8.13;5.20;;;14.50;99.90;;;;;;5045367;28;20152;-43
2023/06/06 00:09:05;;;;;;;5.65;5.00;;;14.50;99.90;;;;;;5045072;28;20108;-43
2023/06/06 00:11:31;;;;;;;6.93;5.53;;;14.50;99.90;;;;;;5045177;28;20610;-43
2023/06/06 00:13:56;;;;;;;7.22;5.30;;;14.50;99.90;;;;;;5046161;28;20033;-42
2023/06/06 00:16:23;;;;;;;6.72;5.43;;;14.40;99.90;;;;;;5044944;28;20075;-42
2023/06/06 00:18:52;;;;;;;6.80;5.90;;;14.40;99.90;;;;;;5045349;28;20025;-44
2023/06/06 00:21:18;;;;;;;8.13;5.80;;;14.30;99.90;;;;;;5045645;28;20090;-43
2023/06/06 00:23:45;;;;;;;7.78;5.60;;;14.20;99.90;;;;;;5044273;28;20693;-45
2023/06/06 00:26:10;;;;;;;6.50;5.20;;;14.20;99.90;;;;;;5045386;28;20464;-43
2023/06/06 00:28:36;;;;;;;5.18;4.57;;;14.10;99.90;;;;;;5044728;28;20074;-43
2023/06/06 00:31:02;;;;;;;5.63;4.82;;;14.10;99.90;;;;;;5044769;28;20033;-43
2023/06/06 00:33:27;;;;;;;6.53;4.65;;;14.10;99.90;;;;;;5044621;28;20095;-44
2023/06/06 00:35:53;;;;;;;6.97;5.43;;;14.10;99.90;;;;;;5045571;28;20520;-42
2023/06/06 00:38:18;;;;;;;7.93;5.45;;;14.00;99.90;;;;;;5044790;28;20021;-43
2023/06/06 00:40:44;;;;;;;6.97;5.88;;;13.90;99.90;;;;;;5044757;28;20025;-44
2023/06/06 00:43:10;;;;;;;7.80;5.13;;;13.90;99.90;;;;;;5045195;28;20534;-43
2023/06/06 00:45:35;;;;;;;7.05;4.63;;;13.90;99.90;;;;;;5044618;28;20025;-44
2023/06/06 00:48:02;;;;;;;5.45;4.82;;;13.90;99.90;;;;;;5045304;28;20079;-44
2023/06/06 00:50:28;;;;;;;6.05;5.15;;;13.90;99.90;;;;;;5043321;28;20917;-43
2023/06/06 00:52:55;;;;;;;7.63;5.30;;;13.80;99.90;;;;;;5044986;28;20084;-43
2023/06/06 00:55:21;;;;;;;7.93;5.53;;;13.80;99.90;;;;;;5044652;28;20041;-43
2023/06/06 00:57:48;;;;;;;6.97;4.80;;;13.70;99.90;;;;;;5044546;28;20103;-43
2023/06/06 01:00:15;;;;;;;7.22;5.97;;;13.70;99.90;;;;;;5045064;28;20052;-43
2023/06/06 01:02:43;;;;;;;9.52;6.13;;;13.70;99.90;;;;;;5044757;28;20039;-42
2023/06/06 01:05:10;;;;;;;8.07;5.47;;;13.60;99.90;;;;;;5044770;28;20033;-43
2023/06/06 01:07:36;;;;;;;8.50;5.65;;;13.50;99.90;;;;;;5044355;28;20036;-43
2023/06/06 01:10:04;;;;;;;7.30;5.30;;;13.50;99.90;;;;;;5044630;28;20029;-42
2023/06/06 01:12:47;;;;;;;7.55;5.63;;;13.50;99.90;;;;;;5044173;28;20020;-43
2023/06/06 01:15:46;;;;;;;7.72;5.60;;;13.50;99.90;;;;;;5045174;28;20115;-42
2023/06/06 01:18:13;;;;;;;8.13;6.07;;;13.50;99.90;;;;;;5045135;28;20028;-43
2023/06/06 01:20:42;;;;;;;5.97;5.30;;;13.40;99.90;;;;;;5043631;28;20843;-44
2023/06/06 01:23:13;;;;;;;6.85;4.95;;;13.40;99.90;;;;;;5044807;28;20519;-44
2023/06/06 01:25:44;;;;;;;7.38;5.28;;;13.40;99.90;;;;;;5043454;28;20308;-43
2023/06/06 01:28:13;;;;;;;8.50;5.57;;;13.40;99.90;;;;;;5044619;28;20499;-43
2023/06/06 01:30:40;;;;;;;8.32;5.53;;;13.30;99.90;;;;;;5043978;28;20033;-42
2023/06/06 01:33:17;;;;;;;6.65;5.47;;;13.30;99.90;;;;;;5043669;28;20075;-43
2023/06/06 01:35:59;;;;;;;6.47;4.80;;;13.30;99.90;;;;;;5043614;28;20064;-43
2023/06/06 01:38:45;;;;;;;6.68;5.25;;;13.30;99.90;;;;;;5044327;28;20017;-42
2023/06/06 01:41:16;;;;;;;8.02;5.30;;;13.20;99.90;;;;;;5043692;28;20547;-42
2023/06/06 01:43:44;;;;;;;9.40;5.80;;;13.20;99.90;;;;;;5043785;28;20024;-43
2023/06/06 01:46:12;;;;;;;6.40;5.63;;;13.10;99.90;;;;;;5044414;28;20027;-43
2023/06/06 01:48:37;;;;;;;8.02;6.15;;;13.10;99.90;;;;;;5042752;28;20045;-43
2023/06/06 01:51:03;;;;;;;8.23;5.32;;;13.10;99.90;;;;;;5044520;28;20032;-43
2023/06/06 01:53:29;;;;;;;6.93;5.18;;;13.00;99.90;;;;;;5042922;28;20045;-43
2023/06/06 01:55:55;;;;;;;6.35;5.20;;;13.00;99.90;;;;;;5044775;28;20041;-43
2023/06/06 01:58:21;;;;;;;6.93;5.95;;;13.00;99.90;;;;;;5044597;28;20385;-42
2023/06/06 02:00:46;;;;;;;7.43;5.40;;;12.90;99.90;;;;;;5043398;28;20029;-41
2023/06/06 02:03:12;;;;;;;8.13;5.03;;;12.90;99.90;;;;;;5044206;28;20045;-43
2023/06/06 02:05:38;;;;;;;6.85;4.63;;;13.00;99.90;;;;;;5043936;28;20405;-43
2023/06/06 02:08:04;;;;;;;7.32;4.82;;;13.00;99.90;;;;;;5043794;28;20029;-43
2023/06/06 02:10:33;;;;;;;7.10;5.40;;;13.00;99.90;;;;;;5043626;28;20040;-43
2023/06/06 02:12:58;;;;;;;6.95;5.10;;;13.00;99.90;;;;;;5044267;28;20025;-43
2023/06/06 02:15:26;;;;;;;7.60;5.63;;;13.00;99.90;;;;;;5042854;28;20041;-40
2023/06/06 02:18:01;;;;;;;6.22;5.05;;;13.00;99.90;;;;;;5043824;28;20025;-43
2023/06/06 02:20:26;;;;;;;6.15;4.93;;;13.00;99.90;;;;;;5024558;28;20047;-42
2023/06/06 02:22:52;;;;;;;6.50;5.07;;;13.00;99.90;;;;;;5037393;28;20465;-43
2023/06/06 02:25:17;;;;;;;6.78;4.80;;;13.00;99.90;;;;;;5043380;28;20035;-43
2023/06/06 02:27:48;;;;;;;7.50;5.50;;;12.90;99.90;;;;;;5043325;28;20200;-44
2023/06/06 02:30:13;;;;;;;7.38;5.13;;;13.00;99.90;;;;;;5043259;28;20036;-42
2023/06/06 02:32:42;;;;;;;5.13;4.13;;;13.00;99.90;;;;;;5043225;28;20091;-43
2023/06/06 02:35:08;;;;;;;6.05;4.40;;;13.00;99.90;;;;;;5044028;28;20107;-44
2023/06/06 02:37:33;;;;;;;6.15;4.63;;;12.90;99.90;;;;;;5042703;28;20025;-43
2023/06/06 02:40:08;;;;;;;6.97;5.40;;;12.90;99.90;;;;;;5044070;28;20111;-44
2023/06/06 02:42:35;;;;;;;6.78;4.82;;;12.90;99.90;;;;;;5043094;28;20033;-44
2023/06/06 02:45:01;;;;;;;6.70;4.35;;;12.80;99.90;;;;;;5043114;28;20486;-43
2023/06/06 02:47:30;;;;;;;7.95;5.38;;;12.80;99.90;;;;;;5042690;28;20055;-43
2023/06/06 02:49:55;;;;;;;8.18;6.10;;;12.80;99.90;;;;;;5042667;28;20029;-44
2023/06/06 02:52:24;;;;;;;6.90;5.38;;;12.70;99.90;;;;;;5043341;28;20094;-43
2023/06/06 02:54:50;;;;;;;7.60;5.07;;;12.70;99.90;;;;;;5043026;28;20040;-44
2023/06/06 02:57:16;;;;;;;8.20;5.57;;;12.70;99.90;;;;;;5042890;28;20036;-42
2023/06/06 02:59:42;;;;;;;6.97;5.28;;;12.70;99.90;;;;;;5042487;28;20021;-43
2023/06/06 03:02:09;;;;;;;6.80;5.68;;;12.70;99.90;;;;;;5043181;28;20419;-43
2023/06/06 03:04:35;;;;;;;8.65;5.82;;;12.70;99.90;;;;;;5044393;28;20384;-43
2023/06/06 03:07:00;;;;;;;7.40;5.75;;;12.70;99.90;;;;;;5046668;28;20036;-43
2023/06/06 03:09:27;;;;;;;8.93;5.95;;;12.70;99.90;;;;;;5046131;28;20024;-43
2023/06/06 03:11:53;;;;;;;6.55;5.22;;;12.70;99.90;;;;;;5046302;28;20021;-43
2023/06/06 03:14:19;;;;;;;8.20;5.60;;;12.70;99.90;;;;;;5046214;28;20024;-43
2023/06/06 03:16:46;;;;;;;7.10;5.28;;;12.70;99.90;;;;;;5046181;28;20376;-42
2023/06/06 03:19:12;;;;;;;6.50;4.57;;;12.70;99.90;;;;;;5046478;28;20028;-44
2023/06/06 03:21:41;;;;;;;6.97;5.05;;;12.70;99.90;;;;;;5046120;28;20041;-44
2023/06/06 03:24:06;;;;;;;9.40;5.60;;;12.70;99.90;;;;;;5046491;28;20436;-42
2023/06/06 03:26:32;;;;;;;7.50;5.72;;;12.60;99.90;;;;;;5045862;28;20025;-43
2023/06/06 03:28:58;;;;;;;6.63;4.93;;;12.60;99.90;;;;;;5046468;28;20363;-43
2023/06/06 03:31:24;;;;;;;7.25;5.10;;;12.60;99.90;;;;;;5035124;28;20045;-44
2023/06/06 03:33:50;;;;;;;8.93;5.38;;;12.60;99.90;;;;;;5045560;28;20032;-41
2023/06/06 03:36:16;;;;;;;6.13;5.10;;;12.60;99.90;;;;;;5046678;28;20037;-43
2023/06/06 03:38:42;;;;;;;5.70;4.95;;;12.50;99.90;;;;;;5046491;28;20522;-43
2023/06/06 03:41:08;;;;;;;7.57;5.57;;;12.50;99.90;;;;;;5046077;28;20445;-43
2023/06/06 03:43:34;;;;;;;7.70;5.70;;;12.50;99.90;;;;;;5046246;28;20032;-43
2023/06/06 03:46:00;;;;;;;8.98;5.32;;;12.50;99.90;;;;;;5045795;28;20024;-44
2023/06/06 03:48:26;;;;;;;5.95;5.18;;;12.50;99.90;;;;;;5046148;28;20031;-44
2023/06/06 03:50:52;;;;;;;9.43;4.85;;;12.50;99.90;;;;;;5045823;28;20052;-43
2023/06/06 03:53:17;;;;;;;9.48;5.80;;;12.40;99.90;;;;;;5045473;28;20071;-42
2023/06/06 03:55:44;;;;;;;7.53;5.68;;;12.40;99.90;;;;;;5045961;28;20035;-43
2023/06/06 03:58:10;;;;;;;7.32;4.78;;;12.40;99.90;;;;;;5046218;28;20103;-44
2023/06/06 04:00:37;;;;;;;8.57;5.70;;;12.40;99.90;;;;;;5045274;28;20021;-43
2023/06/06 04:03:03;;;;;;;7.47;5.80;;;12.50;99.90;;;;;;5046141;28;20033;-43
2023/06/06 04:05:32;;;;;;;8.00;5.35;;;12.40;99.90;;;;;;5045330;28;20774;-44
2023/06/06 04:07:58;;;;;;;10.57;6.25;;;12.40;99.90;;;;;;5045043;28;20119;-43
2023/06/06 04:10:24;;;;;;;9.70;6.00;;;12.40;99.90;;;;;;5045462;28;20033;-43
2023/06/06 04:12:50;;;;;;;11.45;6.97;;;12.40;99.90;;;;;;5045628;28;20032;-43
2023/06/06 04:15:15;;;;;;;8.50;6.10;;;12.40;99.90;;;;;;5044064;28;20037;-41
2023/06/06 04:17:41;;;;;;;10.25;6.07;;;12.40;99.90;;;;;;5045557;28;20033;-43
2023/06/06 04:20:08;;;;;;;6.68;5.63;;;12.40;99.90;;;;;;5046047;28;20025;-44
2023/06/06 04:22:34;;;;;;;7.63;5.95;;;12.40;99.90;;;;;;5045156;28;20025;-43
2023/06/06 04:25:00;;;;;;;6.75;5.40;;;12.40;99.90;;;;;;5046597;28;20033;-42
2023/06/06 04:27:26;;;;;;;9.18;5.80;;;12.40;99.90;;;;;;5045487;28;20025;-42
2023/06/06 04:29:52;;;;;;;7.82;5.75;;;12.40;99.90;;;;;;5045239;28;20072;-43
2023/06/06 04:32:21;;;;;;;7.15;5.15;;;12.50;99.90;;;;;;5045614;28;20017;-42
2023/06/06 04:34:51;;;;;;;5.68;4.50;;;12.50;99.90;;;;;;5045497;28;20959;-42
2023/06/06 04:37:20;;;;;;;6.07;4.95;;;12.50;99.90;;;;;;5044659;28;20021;-42
2023/06/06 04:39:52;;;;;;;7.72;5.68;;;12.50;99.90;;;;;;5045585;28;20021;-44
2023/06/06 04:42:19;;;;;;;7.65;5.10;;;12.50;99.90;;;;;;5044976;28;20021;-43
2023/06/06 04:44:45;;;;;;;10.07;5.60;;;12.50;99.90;;;;;;5045691;28;20024;-43
2023/06/06 04:47:12;;;;;;;8.75;5.32;;;12.50;99.90;;;;;;5045465;28;20028;-43
2023/06/06 04:49:43;;;;;;;5.90;4.30;;;12.60;99.90;;;;;;5044925;28;20029;-43
2023/06/06 04:52:15;;;;;;;6.35;5.47;;;12.60;99.90;;;;;;5044830;28;20032;-43
2023/06/06 04:54:41;;;;;;;7.68;5.25;;;12.60;99.90;;;;;;5044731;28;20029;-44
2023/06/06 04:57:08;;;;;;;9.27;5.03;;;12.60;99.90;;;;;;5044866;28;20116;-43
2023/06/06 04:59:35;;;;;;;9.85;5.55;;;12.60;99.90;;;;;;5044909;28;20035;-42
2023/06/06 05:02:02;;;;;;;9.25;5.47;;;12.70;99.90;;;;;;5045142;28;20035;-44
2023/06/06 05:04:29;;;;;;;6.60;5.38;;;12.70;99.90;;;;;;5043667;28;20017;-41
2023/06/06 05:06:59;;;;;;;7.38;5.53;;;12.70;99.90;;;;;;5044363;28;20025;-43
2023/06/06 05:09:26;;;;;;;6.57;4.45;;;12.70;99.90;;;;;;5044894;28;20021;-43
2023/06/06 05:11:52;;;;;;;7.03;4.50;;;12.80;99.90;;;;;;5043924;28;20766;-43
2023/06/06 05:14:23;;;;;;;7.32;4.95;;;12.80;99.90;;;;;;5044792;28;20375;-44
2023/06/06 05:16:53;;;;;;;8.38;5.40;;;12.90;99.90;;;;;;5044901;28;20091;-43
2023/06/06 05:19:19;;;;;;;5.55;4.65;;;12.90;99.90;;;;;;5043742;28;20428;-43
2023/06/06 05:21:44;;;;;;;8.00;5.10;;;12.90;99.90;;;;;;5045271;28;20033;-43
2023/06/06 05:24:10;;;;;;;7.68;5.78;;;12.90;99.90;;;;;;5044710;28;20021;-44
2023/06/06 05:26:36;;;;;;;8.00;4.88;;;13.00;99.90;;;;;;5043949;28;20032;-42
2023/06/06 05:29:02;;;;;;;10.57;5.55;;;13.00;99.90;;;;;;5044547;28;20033;-43
2023/06/06 05:31:27;;;;;;;7.65;5.30;;;13.00;99.90;;;;;;5043763;28;20025;-43
2023/06/06 05:33:53;;;;;;;7.18;5.55;;;13.00;99.90;;;;;;5041197;28;20255;-43
2023/06/06 05:36:19;;;;;;;8.82;6.20;;;13.10;99.90;;;;;;5043217;28;20090;-42
2023/06/06 05:38:46;;;;;;;6.75;5.18;;;13.10;99.90;;;;;;5042471;28;20286;-43
2023/06/06 05:41:14;;;;;;;8.18;5.00;;;13.10;99.90;;;;;;5043482;28;20025;-42
2023/06/06 05:43:44;;;;;;;9.35;5.88;;;13.20;99.90;;;;;;5043149;28;20455;-44
2023/06/06 05:46:11;;;;;;;8.50;5.63;;;13.20;99.90;;;;;;5043021;28;20032;-44
2023/06/06 05:48:37;;;;;;;7.20;5.47;;;13.20;99.90;;;;;;5043191;28;20021;-42
2023/06/06 05:51:03;;;;;;;8.15;4.78;;;13.20;99.90;;;;;;5043858;28;20641;-42
2023/06/06 05:53:28;;;;;;;7.25;5.88;;;13.30;99.90;;;;;;5042657;28;20045;-43
2023/06/06 05:55:54;;;;;;;9.30;5.13;;;13.30;99.90;;;;;;5044177;28;20061;-43
2023/06/06 05:58:21;;;;;;;8.80;5.45;;;13.40;99.90;;;;;;5043416;28;20075;-42
2023/06/06 06:00:46;;;;;;;6.65;5.20;;;13.40;99.90;;;;;;5042696;28;20099;-43
2023/06/06 06:03:14;;;;;;;7.97;5.68;;;13.40;99.90;;;;;;5044051;28;20029;-43
2023/06/06 06:05:40;;;;;;;5.85;4.60;;;13.50;99.90;;;;;;5043437;28;20029;-43
2023/06/06 06:08:06;;;;;;;5.53;4.80;;;13.50;99.90;;;;;;5042890;28;20029;-43
2023/06/06 06:10:33;;;;;;;7.85;5.65;;;13.60;99.90;;;;;;5042805;28;20047;-44
2023/06/06 06:13:00;;;;;;;9.60;5.90;;;13.60;99.90;;;;;;5042810;28;20844;-43
2023/06/06 06:15:26;;;;;;;6.10;5.20;;;13.70;99.90;;;;;;5041983;28;20427;-43
2023/06/06 06:17:52;;;;;;;8.85;5.55;;;13.70;99.90;;;;;;5043779;28;20388;-43
2023/06/06 06:20:19;;;;;;;10.85;6.13;;;13.80;99.90;;;;;;5044103;28;20025;-43
2023/06/06 06:22:45;;;;;;;6.93;5.00;;;13.80;99.90;;;;;;5042890;28;20041;-43
2023/06/06 06:25:13;;;;;;;6.82;4.85;;;13.80;99.90;;;;;;5043997;28;20036;-43
2023/06/06 06:27:42;;;;;;;6.72;4.38;;;13.90;99.90;;;;;;5043924;28;20028;-44
2023/06/06 06:30:09;;;;;;;6.53;4.80;;;14.00;99.90;;;;;;5043155;28;20139;-42
2023/06/06 06:32:36;;;;;;;7.50;4.72;;;14.00;99.90;;;;;;5043125;28;20021;-43
2023/06/06 06:35:03;;;;;;;5.82;4.53;;;14.10;99.90;;;;;;5043219;28;20112;-42
2023/06/06 06:37:30;;;;;;;6.20;4.40;;;14.20;99.90;;;;;;5043649;28;20024;-43
2023/06/06 06:39:56;;;;;;;6.82;5.00;;;14.20;99.90;;;;;;5046910;28;20086;-44
2023/06/06 06:42:22;;;;;;;8.52;4.90;;;14.30;99.90;;;;;;5046900;28;20021;-42
2023/06/06 06:44:48;;;;;;;7.50;5.15;;;14.40;99.90;;;;;;5048316;28;20572;-43
2023/06/06 06:47:14;;;;;;;9.48;5.07;;;14.40;99.90;;;;;;5047661;28;20708;-42
2023/06/06 06:49:40;;;;;;;6.10;4.78;;;14.50;99.90;;;;;;5046893;28;20029;-43
2023/06/06 06:52:15;;;;;;;5.85;3.97;;;14.50;99.90;;;;;;5047129;28;20495;-43
2023/06/06 06:54:58;;;;;;;6.97;4.57;;;14.60;99.90;;;;;;5047704;28;20052;-42
2023/06/06 06:57:26;;;;;;;;;;;14.70;99.90;;;;;;5046542;28;20217;-43
2023/06/06 06:59:52;;;;;;;5.97;4.05;;;14.70;99.90;;;;;;5047594;28;19959;-43
2023/06/06 07:02:28;;;;;;;6.88;4.57;;;14.80;99.90;;;;;;5047485;28;20025;-44
2023/06/06 07:04:57;;;;;;;8.13;4.53;;;14.80;99.90;;;;;;5026628;28;20040;-43
2023/06/06 07:07:23;;;;;;;5.95;3.70;;;14.90;99.90;;;;;;5041616;28;20029;-43
2023/06/06 07:09:49;;;;;;;8.00;4.45;;;14.90;99.90;;;;;;5047453;28;20044;-45
2023/06/06 07:12:14;;;;;;;9.52;5.00;;;15.00;99.90;;;;;;5046491;28;20029;-43
2023/06/06 07:14:40;;;;;;;6.22;4.20;;;15.00;99.90;;;;;;5046250;28;20158;-43
2023/06/06 07:17:09;;;;;;;8.80;3.97;;;15.10;99.90;;;;;;5046581;28;20125;-43
2023/06/06 07:19:35;;;;;;;6.22;3.85;;;15.20;99.90;;;;;;5046883;28;20032;-43
2023/06/06 07:22:05;;;;;;;4.32;3.60;;;15.20;99.90;;;;;;5046956;28;20032;-42
2023/06/06 07:24:31;;;;;;;4.90;3.67;;;15.30;99.90;;;;;;5045184;28;20499;-43
2023/06/06 07:26:58;;;;;;;6.20;4.10;;;15.30;99.90;;;;;;5047089;28;20029;-44
2023/06/06 07:29:24;;;;;;;6.97;4.10;;;15.40;99.90;;;;;;5046257;28;20031;-44
2023/06/06 07:31:56;;;;;;;5.63;3.72;;;15.40;99.90;;;;;;5045828;28;20081;-44
2023/06/06 07:34:22;;;;;;;5.28;3.45;;;15.50;99.90;;;;;;5045935;28;20441;-44
2023/06/06 07:36:48;;;;;;;5.30;3.92;;;15.60;99.90;;;;;;5046391;28;20626;-43
2023/06/06 07:39:13;;;;;;;28.02;6.88;;;15.60;99.90;;;;;;5041887;28;20100;-42
2023/06/06 07:41:39;;;;;;;8.85;4.22;;;15.70;99.90;;;;;;5046374;28;20029;-43
2023/06/06 07:44:05;;;;;;;11.00;4.93;;;15.70;99.90;;;;;;5046646;28;20358;-42
2023/06/06 07:46:30;;;;;;;8.70;4.55;;;15.80;99.90;;;;;;5045503;28;20039;-42
2023/06/06 07:48:57;;;;;;;7.60;4.47;;;15.80;99.90;;;;;;5046370;28;20029;-42
2023/06/06 07:51:23;;;;;;;7.10;4.35;;;15.90;99.90;;;;;;5025343;28;20033;-42
2023/06/06 07:53:49;;;;;;;5.60;3.70;;;16.00;99.90;;;;;;5039414;28;20527;-43
2023/06/06 07:56:14;;;;;;;5.85;3.22;;;16.10;99.90;;;;;;5046342;28;20041;-44
2023/06/06 07:58:51;;;;;;;4.70;3.45;;;16.10;99.90;;;;;;5045414;28;20021;-44
2023/06/06 08:01:19;;;;;;;7.05;3.80;;;16.20;99.90;;;;;;5045474;28;20040;-42
2023/06/06 08:03:49;;;;;;;6.88;3.90;;;16.20;99.90;;;;;;5045540;28;20025;-43
2023/06/06 08:06:19;;;;;;;5.40;3.80;;;16.30;99.90;;;;;;5045400;28;20033;-42
2023/06/06 08:08:51;;;;;;;6.07;3.80;;;16.40;99.90;;;;;;5045620;28;20384;-44
2023/06/06 08:11:17;;;;;;;8.30;5.13;;;16.40;99.90;;;;;;5045698;28;20112;-43
2023/06/06 08:13:43;;;;;;;5.47;4.30;;;16.40;99.90;;;;;;5043611;28;20079;-44
2023/06/06 08:16:09;;;;;;;6.68;4.53;;;16.40;99.90;;;;;;5045322;28;20032;-43
2023/06/06 08:18:35;;;;;;;6.45;4.43;;;16.50;99.90;;;;;;5045015;28;20021;-43
2023/06/06 08:21:01;;;;;;;7.03;4.45;;;16.50;99.90;;;;;;5045150;28;20546;-43
2023/06/06 08:23:26;;;;;;;12.50;5.15;;;16.60;99.90;;;;;;5045018;28;20029;-44
2023/06/06 08:25:55;;;;;;;7.75;4.03;;;16.60;99.90;;;;;;5045824;28;20025;-43
2023/06/06 08:28:29;;;;;;;7.85;4.10;;;16.70;99.90;;;;;;5044969;28;20068;-44
2023/06/06 08:30:55;;;;;;;5.55;3.47;;;16.80;99.90;;;;;;5045255;28;20370;-45
2023/06/06 08:33:21;;;;;;;6.57;4.15;;;16.90;99.90;;;;;;5044850;28;20548;-43
2023/06/06 08:35:47;;;;;;;4.93;3.35;;;16.90;99.90;;;;;;5044174;28;20043;-44
2023/06/06 08:38:16;;;;;;;6.20;3.88;;;17.00;99.90;;;;;;5045738;28;20017;-42
2023/06/06 08:40:42;;;;;;;8.27;4.10;;;17.00;99.90;;;;;;5045076;28;20024;-42
2023/06/06 08:43:09;;;;;;;6.40;3.85;;;17.10;99.90;;;;;;5044795;28;20021;-43
2023/06/06 08:45:36;;;;;;;7.75;4.03;;;17.20;99.90;;;;;;5044813;28;20060;-43
2023/06/06 08:48:03;;;;;;;5.90;3.90;;;17.20;99.90;;;;;;5045195;28;20033;-44
2023/06/06 08:50:30;;;;;;;4.97;3.58;;;17.30;99.90;;;;;;5043802;28;20025;-43
2023/06/06 08:52:56;;;;;;;5.68;4.32;;;17.30;99.90;;;;;;5045227;28;20149;-43
2023/06/06 08:55:22;;;;;;;5.68;3.70;;;17.40;99.90;;;;;;5044267;28;20468;-48
2023/06/06 08:57:48;;;;;;;6.05;4.53;;;17.50;99.90;;;;;;5044523;28;20039;-43
2023/06/06 09:00:21;;;;;;;7.72;4.03;;;17.60;99.90;;;;;;5044531;28;20486;-43
2023/06/06 09:02:52;;;;;;;7.07;3.80;;;17.70;99.90;;;;;;5043894;28;20103;-43
2023/06/06 09:05:20;;;;;;;6.03;3.50;;;17.70;99.90;;;;;;5044932;28;20052;-43
2023/06/06 09:07:48;;;;;;;4.32;3.33;;;17.80;99.90;;;;;;5044906;28;20025;-43
2023/06/06 09:10:15;;;;;;;6.03;3.08;;;17.90;99.90;;;;;;5043991;28;20547;-43
2023/06/06 09:12:45;;;;;;;5.45;3.88;;;17.90;99.90;;;;;;5042947;28;20533;-43
2023/06/06 09:15:14;;;;;;;6.47;3.38;;;18.00;99.90;;;;;;5043267;28;20052;-43
2023/06/06 09:17:43;;;;;;;6.57;4.70;;;18.00;99.90;;;;;;5042058;28;20021;-46
2023/06/06 09:20:14;;;;;;;6.00;3.70;;;18.10;99.90;;;;;;5043565;28;20029;-43
2023/06/06 09:22:41;;;;;;;4.68;3.70;;;18.10;99.90;;;;;;5043173;28;20017;-44
2023/06/06 09:25:21;;;;;;;4.50;3.53;;;18.20;99.90;;;;;;5043631;28;20112;-43
2023/06/06 09:27:52;;;;;;;4.75;3.83;;;18.30;99.90;;;;;;5043870;28;20024;-43
2023/06/06 09:30:20;;;;;;;4.85;3.95;;;18.40;99.90;;;;;;5044789;28;20451;-44
2023/06/06 09:32:50;;;;;;;5.15;3.58;;;18.50;99.90;;;;;;5043583;28;20021;-43
2023/06/06 09:35:15;;;;;;;4.35;3.20;;;18.60;99.90;;;;;;5044416;28;20041;-43
2023/06/06 09:37:41;;;;;;;6.80;3.55;;;18.60;99.90;;;;;;5043248;28;20082;-44
2023/06/06 09:40:18;;;;;;;3.88;3.10;;;18.70;99.90;;;;;;5044645;28;20032;-43
2023/06/06 09:42:45;;;;;;;5.28;3.03;;;18.70;99.90;;;;;;5044227;28;20076;-43
2023/06/06 09:45:19;;;;;;;3.20;2.90;;;18.70;99.90;;;;;;5043816;28;20567;-44
2023/06/06 09:47:46;;;;;;;3.88;2.92;;;18.80;99.90;;;;;;5043813;28;20032;-43
2023/06/06 09:50:13;;;;;;;4.97;3.20;;;18.90;99.90;;;;;;5044044;28;20196;-44
2023/06/06 09:52:39;;;;;;;4.28;3.25;;;18.90;99.90;;;;;;5042833;28;20124;-43
2023/06/06 09:55:06;;;;;;;4.35;3.33;;;18.90;99.90;;;;;;5043999;28;20132;-44
2023/06/06 09:57:36;;;;;;;5.05;3.63;;;19.00;99.90;;;;;;5043507;28;20044;-43
2023/06/06 10:00:06;;;;;;;4.93;3.13;;;19.00;99.90;;;;;;5043494;28;20021;-42
2023/06/06 10:02:34;;;;;;;4.03;3.03;;;19.10;99.90;;;;;;5044193;28;20052;-43
2023/06/06 10:05:01;;;;;;;4.20;3.13;;;19.20;99.90;;;;;;5044330;28;20556;-44
2023/06/06 10:07:28;;;;;;;5.82;3.53;;;19.30;99.90;;;;;;5042993;28;20128;-43
2023/06/06 10:09:55;;;;;;;3.80;3.00;;;19.30;99.90;;;;;;5044206;28;20368;-44
2023/06/06 10:12:22;;;;;;;4.00;3.50;;;19.40;99.90;;;;;;5043758;28;20044;-44
2023/06/06 10:14:48;;;;;;;4.72;3.13;;;19.50;99.90;;;;;;5042573;28;20025;-44
2023/06/06 10:17:15;;;;;;;5.40;3.55;;;19.50;99.90;;;;;;5043640;28;20033;-43
2023/06/06 10:19:41;;;;;;;4.57;2.97;;;19.60;99.90;;;;;;5043483;28;20025;-44
2023/06/06 10:22:07;;;;;;;4.47;3.00;;;19.60;99.90;;;;;;5043996;28;20447;-42
2023/06/06 10:24:33;;;;;;;4.10;2.80;;;19.70;99.90;;;;;;5043310;28;20102;-43
2023/06/06 10:27:11;;;;;;;8.95;4.10;;;19.70;99.90;;;;;;5043318;28;21076;-44
2023/06/06 10:30:02;;;;;;;5.68;3.30;;;19.80;99.90;;;;;;5043102;28;20056;-43
2023/06/06 10:32:42;;;;;;;4.93;3.33;;;19.80;99.90;;;;;;5043328;28;20087;-43
2023/06/06 10:35:11;;;;;;;6.70;3.67;;;19.90;99.90;;;;;;5040186;28;20040;-43
2023/06/06 10:37:38;;;;;;;6.05;3.58;;;19.90;99.90;;;;;;5043586;28;20033;-43
2023/06/06 10:40:05;;;;;;;7.45;3.00;;;20.00;99.90;;;;;;5044351;28;20032;-43
2023/06/06 10:42:40;;;;;;;3.03;2.63;;;20.00;99.90;;;;;;5042737;28;20120;-43
2023/06/06 10:45:07;;;;;;;6.00;3.33;;;20.10;99.90;;;;;;5043758;28;20120;-43
2023/06/06 10:47:37;;;;;;;6.18;3.83;;;20.20;99.90;;;;;;5043852;28;20087;-44
2023/06/06 10:50:02;;;;;;;4.70;3.45;;;20.30;99.90;;;;;;5043260;28;20404;-43
2023/06/06 10:52:28;;;;;;;3.72;2.75;;;20.40;99.90;;;;;;5043532;28;20706;-44
2023/06/06 10:54:57;;;;;;;5.53;2.90;;;20.40;99.90;;;;;;5043516;28;20118;-43
2023/06/06 10:57:23;;;;;;;5.45;3.50;;;20.40;99.90;;;;;;5042380;28;20025;-44
2023/06/06 10:59:50;;;;;;;6.70;4.05;;;20.50;99.90;;;;;;5043708;28;20036;-43
2023/06/06 11:02:34;;;;;;;5.15;3.35;;;20.50;99.60;;;;;;5043709;28;20025;-44
2023/06/06 11:05:00;;;;;;;4.78;3.47;;;20.60;99.60;;;;;;5043978;28;20087;-44
2023/06/06 11:07:27;;;;;;;5.70;4.15;;;20.60;99.50;;;;;;5043108;28;20345;-43
2023/06/06 11:09:54;;;;;;;4.68;3.03;;;20.60;99.30;;;;;;5043420;28;20459;-43
2023/06/06 11:12:20;;;;;;;4.63;3.63;;;20.60;99.30;;;;;;5043315;28;20032;-44
2023/06/06 11:15:11;;;;;;;5.07;3.50;;;20.70;99.20;;;;;;5042891;28;20037;-43
2023/06/06 11:17:43;;;;;;;4.60;3.33;;;20.80;98.80;;;;;;5042605;28;20032;-44
2023/06/06 11:20:18;;;;;;;;;;;20.90;98.40;;;;;;5043977;28;20104;-43
2023/06/06 11:23:05;;;;;;;6.18;3.38;;;20.90;98.30;;;;;;5043443;28;19909;-44
2023/06/06 11:25:35;;;;;;;7.28;3.53;;;21.00;98.20;;;;;;5044116;28;20103;-44
2023/06/06 11:28:01;;;;;;;6.63;3.83;;;21.00;98.20;;;;;;5047827;28;20028;-44
2023/06/06 11:30:31;;;;;;;5.13;3.35;;;21.10;98.20;;;;;;5045575;28;20441;-44
2023/06/06 11:32:58;;;;;;;4.93;2.97;;;21.00;98.20;;;;;;5047751;28;20021;-43
2023/06/06 11:35:24;;;;;;;4.22;3.15;;;21.20;98.20;;;;;;5046554;28;20021;-44
2023/06/06 11:37:50;;;;;;;4.82;3.42;;;21.20;98.10;;;;;;5047048;28;20099;-44
2023/06/06 11:40:16;;;;;;;7.07;3.83;;;21.30;98.10;;;;;;5047283;28;20104;-43
2023/06/06 11:42:43;;;;;;;4.50;3.42;;;21.30;97.90;;;;;;5046842;28;20032;-44
2023/06/06 11:45:16;;;;;;;6.03;4.10;;;21.40;97.90;;;;;;5046064;28;20468;-43
2023/06/06 11:47:43;;;;;;;5.65;3.83;;;21.40;97.70;;;;;;5046699;28;20036;-44
2023/06/06 11:50:10;;;;;;;3.85;3.13;;;21.50;97.50;;;;;;5046948;28;20035;-44
2023/06/06 11:52:50;;;;;;;5.00;3.55;;;21.50;97.50;;;;;;5045486;28;20056;-44
2023/06/06 11:55:16;;;;;;;4.10;3.10;;;21.60;97.40;;;;;;5046413;28;20044;-44
2023/06/06 11:57:42;;;;;;;5.07;2.90;;;21.60;97.40;;;;;;5046093;28;20477;-44
2023/06/06 12:00:17;;;;;;;5.50;2.65;;;21.70;97.50;;;;;;5046234;28;20492;-43
2023/06/06 12:02:48;;;;;;;6.80;2.80;;;21.70;97.50;;;;;;5046128;28;20809;-43
2023/06/06 12:05:24;;;;;;;4.47;2.80;;;21.80;97.50;;;;;;5046401;28;20025;-43
2023/06/06 12:07:50;;;;;;;3.33;2.95;;;21.80;97.40;;;;;;5046375;28;20029;-44
2023/06/06 12:10:42;;;;;;;5.22;3.55;;;21.80;97.20;;;;;;5046263;28;20017;-43
2023/06/06 12:13:08;;;;;;;6.55;4.15;;;21.80;96.90;;;;;;5044106;28;20237;-43
2023/06/06 12:15:48;;;;;;;4.38;3.10;;;21.90;96.70;;;;;;5046039;28;20622;-43
2023/06/06 12:18:14;;;;;;;4.43;2.88;;;22.00;96.80;;;;;;5045771;28;20031;-43
2023/06/06 12:20:39;;;;;;;3.65;3.00;;;22.00;96.90;;;;;;5045150;28;20384;-43
2023/06/06 12:23:05;;;;;;;3.72;3.10;;;22.00;96.80;;;;;;5046243;28;20132;-44
2023/06/06 12:25:31;;;;;;;5.32;3.65;;;22.00;96.80;;;;;;5045536;28;20056;-44
2023/06/06 12:28:10;;;;;;;5.93;3.45;;;22.10;96.70;;;;;;5045187;28;20025;-44
2023/06/06 12:30:44;;;;;;;5.78;3.42;;;22.20;96.50;;;;;;5045650;28;20029;-43
2023/06/06 12:33:09;;;;;;;4.10;3.22;;;22.30;96.10;;;;;;5045799;28;20032;-44
2023/06/06 12:35:35;;;;;;;4.85;3.45;;;22.30;96.00;;;;;;5044117;28;20445;-43
2023/06/06 12:38:01;;;;;;;3.97;2.92;;;22.30;95.90;;;;;;5045386;28;20035;-44
2023/06/06 12:40:33;;;;;;;3.40;2.90;;;22.40;95.80;;;;;;5044712;28;20765;-44
2023/06/06 12:43:06;;;;;;;;;;;22.30;95.70;;;;;;5046163;28;20365;-43
2023/06/06 12:45:35;;;;;;;;;;;22.40;95.70;;;;;;5045326;28;19920;-44
2023/06/06 12:48:02;;;;;;;3.88;2.58;;;22.50;95.70;;;;;;5044362;28;19909;-44
2023/06/06 12:50:28;;;;;;;4.25;2.80;;;22.50;95.60;;;;;;5044513;28;20670;-44
2023/06/06 12:52:53;;;;;;;2.58;2.30;;;22.50;95.50;;;;;;5045429;28;20127;-43